sensor_id;sensor_type;location;lat;lon;timestamp;P1;durP1;ratioP1;P2;durP2;ratioP2
40162;SDS011;25881;47.462;19.304;2022-12-08T00:02:21;52.75;;;30.05;;
40162;SDS011;25881;47.462;19.304;2022-12-08T00:04:46;46.33;;;27.23;;
40162;SDS011;25881;47.462;19.304;2022-12-08T00:07:30;54.05;;;29.95;;
40162;SDS011;25881;47.462;19.304;2022-12-08T00:10:14;51.55;;;28.17;;
40162;SDS011;25881;47.462;19.304;2022-12-08T00:12:39;49.25;;;29.17;;
40162;SDS011;25881;47.462;19.304;2022-12-08T00:15:04;58.30;;;32.00;;
40162;SDS011;25881;47.462;19.304;2022-12-08T00:17:30;64.10;;;36.53;;
40162;SDS011;25881;47.462;19.304;2022-12-08T00:19:55;60.03;;;33.63;;
40162;SDS011;25881;47.462;19.304;2022-12-08T00:22:20;56.53;;;31.60;;
40162;SDS011;25881;47.462;19.304;2022-12-08T00:24:45;57.03;;;34.57;;
40162;SDS011;25881;47.462;19.304;2022-12-08T00:27:12;57.33;;;34.13;;
40162;SDS011;25881;47.462;19.304;2022-12-08T00:29:37;58.35;;;33.17;;
40162;SDS011;25881;47.462;19.304;2022-12-08T00:32:03;53.03;;;30.90;;
40162;SDS011;25881;47.462;19.304;2022-12-08T00:34:29;57.67;;;31.13;;
40162;SDS011;25881;47.462;19.304;2022-12-08T00:36:54;52.53;;;31.92;;
40162;SDS011;25881;47.462;19.304;2022-12-08T00:39:19;51.53;;;30.03;;
40162;SDS011;25881;47.462;19.304;2022-12-08T00:41:45;52.87;;;30.77;;
40162;SDS011;25881;47.462;19.304;2022-12-08T00:44:28;52.13;;;29.60;;
40162;SDS011;25881;47.462;19.304;2022-12-08T00:46:54;48.30;;;27.40;;
40162;SDS011;25881;47.462;19.304;2022-12-08T00:49:19;54.47;;;31.33;;
40162;SDS011;25881;47.462;19.304;2022-12-08T00:51:45;53.38;;;30.75;;
40162;SDS011;25881;47.462;19.304;2022-12-08T00:54:10;49.67;;;28.77;;
40162;SDS011;25881;47.462;19.304;2022-12-08T00:56:36;53.30;;;29.70;;
40162;SDS011;25881;47.462;19.304;2022-12-08T00:59:02;52.58;;;27.48;;
40162;SDS011;25881;47.462;19.304;2022-12-08T01:01:27;48.72;;;27.60;;
40162;SDS011;25881;47.462;19.304;2022-12-08T01:03:53;51.60;;;29.10;;
40162;SDS011;25881;47.462;19.304;2022-12-08T01:06:18;49.63;;;27.95;;
40162;SDS011;25881;47.462;19.304;2022-12-08T01:08:43;44.13;;;26.33;;
40162;SDS011;25881;47.462;19.304;2022-12-08T01:11:10;43.13;;;25.58;;
40162;SDS011;25881;47.462;19.304;2022-12-08T01:13:36;48.30;;;28.23;;
40162;SDS011;25881;47.462;19.304;2022-12-08T01:16:01;50.33;;;28.55;;
40162;SDS011;25881;47.462;19.304;2022-12-08T01:18:27;48.00;;;27.30;;
40162;SDS011;25881;47.462;19.304;2022-12-08T01:20:52;46.13;;;26.60;;
40162;SDS011;25881;47.462;19.304;2022-12-08T01:23:17;44.90;;;25.87;;
40162;SDS011;25881;47.462;19.304;2022-12-08T01:25:42;44.37;;;26.07;;
40162;SDS011;25881;47.462;19.304;2022-12-08T01:28:08;48.13;;;26.97;;
40162;SDS011;25881;47.462;19.304;2022-12-08T01:30:33;44.40;;;26.97;;
40162;SDS011;25881;47.462;19.304;2022-12-08T01:32:58;52.27;;;28.73;;
40162;SDS011;25881;47.462;19.304;2022-12-08T01:35:23;45.63;;;27.10;;
40162;SDS011;25881;47.462;19.304;2022-12-08T01:37:49;51.07;;;26.30;;
40162;SDS011;25881;47.462;19.304;2022-12-08T01:40:15;48.10;;;27.88;;
40162;SDS011;25881;47.462;19.304;2022-12-08T01:42:40;47.92;;;27.65;;
40162;SDS011;25881;47.462;19.304;2022-12-08T01:47:51;51.80;;;28.52;;
40162;SDS011;25881;47.462;19.304;2022-12-08T01:50:17;48.17;;;27.65;;
40162;SDS011;25881;47.462;19.304;2022-12-08T01:52:45;47.83;;;26.73;;
40162;SDS011;25881;47.462;19.304;2022-12-08T01:57:44;45.40;;;26.17;;
40162;SDS011;25881;47.462;19.304;2022-12-08T02:00:13;79.00;;;41.08;;
40162;SDS011;25881;47.462;19.304;2022-12-08T02:02:45;60.00;;;34.38;;
40162;SDS011;25881;47.462;19.304;2022-12-08T02:05:12;64.72;;;34.60;;
40162;SDS011;25881;47.462;19.304;2022-12-08T02:07:37;62.55;;;34.60;;
40162;SDS011;25881;47.462;19.304;2022-12-08T02:10:03;57.40;;;31.67;;
40162;SDS011;25881;47.462;19.304;2022-12-08T02:12:28;54.17;;;28.00;;
40162;SDS011;25881;47.462;19.304;2022-12-08T02:14:53;47.93;;;27.03;;
40162;SDS011;25881;47.462;19.304;2022-12-08T02:17:34;43.67;;;25.63;;
40162;SDS011;25881;47.462;19.304;2022-12-08T02:20:19;44.85;;;25.80;;
40162;SDS011;25881;47.462;19.304;2022-12-08T02:22:51;39.60;;;23.20;;
40162;SDS011;25881;47.462;19.304;2022-12-08T02:38:28;31.92;;;19.38;;
40162;SDS011;25881;47.462;19.304;2022-12-08T02:43:43;35.05;;;19.83;;
40162;SDS011;25881;47.462;19.304;2022-12-08T02:46:17;35.43;;;19.70;;
40162;SDS011;25881;47.462;19.304;2022-12-08T02:48:44;32.53;;;19.48;;
40162;SDS011;25881;47.462;19.304;2022-12-08T02:51:09;34.45;;;18.58;;
40162;SDS011;25881;47.462;19.304;2022-12-08T02:53:35;36.30;;;18.93;;
40162;SDS011;25881;47.462;19.304;2022-12-08T03:04:07;33.78;;;19.63;;
40162;SDS011;25881;47.462;19.304;2022-12-08T03:09:10;37.53;;;20.55;;
40162;SDS011;25881;47.462;19.304;2022-12-08T03:11:48;39.53;;;20.92;;
40162;SDS011;25881;47.462;19.304;2022-12-08T03:14:15;40.55;;;20.90;;
40162;SDS011;25881;47.462;19.304;2022-12-08T03:16:41;38.17;;;20.60;;
40162;SDS011;25881;47.462;19.304;2022-12-08T03:21:33;31.65;;;19.73;;
40162;SDS011;25881;47.462;19.304;2022-12-08T03:23:59;34.50;;;18.98;;
40162;SDS011;25881;47.462;19.304;2022-12-08T03:26:28;33.80;;;19.58;;
40162;SDS011;25881;47.462;19.304;2022-12-08T03:31:19;35.53;;;20.65;;
40162;SDS011;25881;47.462;19.304;2022-12-08T03:33:45;42.30;;;24.45;;
40162;SDS011;25881;47.462;19.304;2022-12-08T03:36:12;50.70;;;26.75;;
40162;SDS011;25881;47.462;19.304;2022-12-08T03:38:39;45.03;;;25.35;;
40162;SDS011;25881;47.462;19.304;2022-12-08T03:41:05;48.08;;;27.35;;
40162;SDS011;25881;47.462;19.304;2022-12-08T03:43:42;48.00;;;26.27;;
40162;SDS011;25881;47.462;19.304;2022-12-08T03:46:07;45.70;;;26.77;;
40162;SDS011;25881;47.462;19.304;2022-12-08T03:48:33;48.33;;;27.07;;
40162;SDS011;25881;47.462;19.304;2022-12-08T03:50:58;49.23;;;28.80;;
40162;SDS011;25881;47.462;19.304;2022-12-08T03:53:23;44.03;;;25.47;;
40162;SDS011;25881;47.462;19.304;2022-12-08T03:55:48;44.80;;;25.95;;
40162;SDS011;25881;47.462;19.304;2022-12-08T03:58:14;51.63;;;28.50;;
40162;SDS011;25881;47.462;19.304;2022-12-08T04:00:39;49.47;;;27.83;;
40162;SDS011;25881;47.462;19.304;2022-12-08T04:03:04;44.13;;;27.47;;
40162;SDS011;25881;47.462;19.304;2022-12-08T04:05:30;50.97;;;27.90;;
40162;SDS011;25881;47.462;19.304;2022-12-08T04:07:56;53.00;;;31.10;;
40162;SDS011;25881;47.462;19.304;2022-12-08T04:10:21;53.63;;;31.40;;
40162;SDS011;25881;47.462;19.304;2022-12-08T04:12:46;57.70;;;35.80;;
40162;SDS011;25881;47.462;19.304;2022-12-08T04:15:11;54.73;;;33.03;;
40162;SDS011;25881;47.462;19.304;2022-12-08T04:17:37;54.97;;;34.50;;
40162;SDS011;25881;47.462;19.304;2022-12-08T04:20:02;64.37;;;38.37;;
40162;SDS011;25881;47.462;19.304;2022-12-08T04:22:27;86.53;;;48.92;;
40162;SDS011;25881;47.462;19.304;2022-12-08T04:24:52;82.10;;;46.73;;
40162;SDS011;25881;47.462;19.304;2022-12-08T04:27:18;75.20;;;43.40;;
40162;SDS011;25881;47.462;19.304;2022-12-08T04:29:43;61.50;;;34.47;;
40162;SDS011;25881;47.462;19.304;2022-12-08T04:32:08;60.90;;;35.40;;
40162;SDS011;25881;47.462;19.304;2022-12-08T04:34:33;66.75;;;38.70;;
40162;SDS011;25881;47.462;19.304;2022-12-08T04:36:59;64.83;;;36.30;;
40162;SDS011;25881;47.462;19.304;2022-12-08T04:39:24;68.40;;;39.20;;
40162;SDS011;25881;47.462;19.304;2022-12-08T04:41:49;79.03;;;45.72;;
40162;SDS011;25881;47.462;19.304;2022-12-08T04:44:14;74.37;;;45.37;;
40162;SDS011;25881;47.462;19.304;2022-12-08T04:46:39;69.10;;;40.00;;
40162;SDS011;25881;47.462;19.304;2022-12-08T04:49:05;64.03;;;36.63;;
40162;SDS011;25881;47.462;19.304;2022-12-08T04:51:30;60.50;;;33.93;;
40162;SDS011;25881;47.462;19.304;2022-12-08T04:53:55;54.93;;;32.57;;
40162;SDS011;25881;47.462;19.304;2022-12-08T04:56:20;50.17;;;29.63;;
40162;SDS011;25881;47.462;19.304;2022-12-08T04:58:46;44.35;;;28.25;;
40162;SDS011;25881;47.462;19.304;2022-12-08T05:01:11;52.73;;;29.57;;
40162;SDS011;25881;47.462;19.304;2022-12-08T05:03:36;62.55;;;32.97;;
40162;SDS011;25881;47.462;19.304;2022-12-08T05:06:02;54.75;;;31.98;;
40162;SDS011;25881;47.462;19.304;2022-12-08T05:08:27;64.07;;;36.05;;
40162;SDS011;25881;47.462;19.304;2022-12-08T05:10:53;76.57;;;45.75;;
40162;SDS011;25881;47.462;19.304;2022-12-08T05:13:18;69.75;;;41.38;;
40162;SDS011;25881;47.462;19.304;2022-12-08T05:15:44;75.65;;;42.38;;
40162;SDS011;25881;47.462;19.304;2022-12-08T05:18:09;75.90;;;44.67;;
40162;SDS011;25881;47.462;19.304;2022-12-08T05:20:34;71.25;;;42.65;;
40162;SDS011;25881;47.462;19.304;2022-12-08T05:23:00;58.20;;;33.03;;
40162;SDS011;25881;47.462;19.304;2022-12-08T05:25:25;51.95;;;30.10;;
40162;SDS011;25881;47.462;19.304;2022-12-08T05:27:50;51.83;;;29.50;;
40162;SDS011;25881;47.462;19.304;2022-12-08T05:30:16;50.40;;;29.40;;
40162;SDS011;25881;47.462;19.304;2022-12-08T05:32:41;44.93;;;27.53;;
40162;SDS011;25881;47.462;19.304;2022-12-08T05:35:06;52.33;;;28.53;;
40162;SDS011;25881;47.462;19.304;2022-12-08T05:37:31;50.92;;;29.65;;
40162;SDS011;25881;47.462;19.304;2022-12-08T05:39:57;45.83;;;27.75;;
40162;SDS011;25881;47.462;19.304;2022-12-08T05:42:22;51.87;;;27.27;;
40162;SDS011;25881;47.462;19.304;2022-12-08T05:44:47;48.73;;;27.67;;
40162;SDS011;25881;47.462;19.304;2022-12-08T05:47:12;54.27;;;29.27;;
40162;SDS011;25881;47.462;19.304;2022-12-08T05:49:38;64.77;;;35.87;;
40162;SDS011;25881;47.462;19.304;2022-12-08T05:52:03;71.47;;;36.90;;
40162;SDS011;25881;47.462;19.304;2022-12-08T05:54:28;61.88;;;31.08;;
40162;SDS011;25881;47.462;19.304;2022-12-08T05:56:54;48.15;;;29.52;;
40162;SDS011;25881;47.462;19.304;2022-12-08T05:59:19;57.55;;;32.60;;
40162;SDS011;25881;47.462;19.304;2022-12-08T06:01:44;53.20;;;32.87;;
40162;SDS011;25881;47.462;19.304;2022-12-08T06:04:10;66.00;;;36.03;;
40162;SDS011;25881;47.462;19.304;2022-12-08T06:06:35;65.82;;;35.15;;
40162;SDS011;25881;47.462;19.304;2022-12-08T06:09:02;74.70;;;37.88;;
40162;SDS011;25881;47.462;19.304;2022-12-08T06:11:28;103.30;;;48.10;;
40162;SDS011;25881;47.462;19.304;2022-12-08T06:13:53;112.85;;;51.00;;
40162;SDS011;25881;47.462;19.304;2022-12-08T06:16:20;121.53;;;50.65;;
40162;SDS011;25881;47.462;19.304;2022-12-08T06:18:46;109.50;;;52.15;;
40162;SDS011;25881;47.462;19.304;2022-12-08T06:21:11;117.27;;;55.43;;
40162;SDS011;25881;47.462;19.304;2022-12-08T06:23:37;109.95;;;52.47;;
40162;SDS011;25881;47.462;19.304;2022-12-08T06:26:06;112.37;;;52.77;;
40162;SDS011;25881;47.462;19.304;2022-12-08T06:28:32;95.15;;;46.63;;
40162;SDS011;25881;47.462;19.304;2022-12-08T06:30:57;103.47;;;50.22;;
40162;SDS011;25881;47.462;19.304;2022-12-08T06:33:23;107.50;;;56.60;;
40162;SDS011;25881;47.462;19.304;2022-12-08T06:35:49;113.03;;;59.13;;
40162;SDS011;25881;47.462;19.304;2022-12-08T06:38:14;113.90;;;59.37;;
40162;SDS011;25881;47.462;19.304;2022-12-08T06:40:39;102.67;;;54.90;;
40162;SDS011;25881;47.462;19.304;2022-12-08T06:43:04;97.47;;;49.23;;
40162;SDS011;25881;47.462;19.304;2022-12-08T06:45:29;81.20;;;43.17;;
40162;SDS011;25881;47.462;19.304;2022-12-08T06:47:55;85.90;;;46.53;;
40162;SDS011;25881;47.462;19.304;2022-12-08T06:50:20;71.93;;;38.43;;
40162;SDS011;25881;47.462;19.304;2022-12-08T06:52:45;68.30;;;36.87;;
40162;SDS011;25881;47.462;19.304;2022-12-08T06:55:10;64.40;;;34.88;;
40162;SDS011;25881;47.462;19.304;2022-12-08T06:57:36;62.27;;;34.20;;
40162;SDS011;25881;47.462;19.304;2022-12-08T07:00:01;62.60;;;34.33;;
40162;SDS011;25881;47.462;19.304;2022-12-08T07:02:27;73.00;;;39.60;;
40162;SDS011;25881;47.462;19.304;2022-12-08T07:04:53;61.97;;;32.80;;
40162;SDS011;25881;47.462;19.304;2022-12-08T07:07:18;60.73;;;34.93;;
40162;SDS011;25881;47.462;19.304;2022-12-08T07:09:43;67.27;;;35.40;;
40162;SDS011;25881;47.462;19.304;2022-12-08T07:12:08;72.72;;;41.45;;
40162;SDS011;25881;47.462;19.304;2022-12-08T07:14:33;71.10;;;38.80;;
40162;SDS011;25881;47.462;19.304;2022-12-08T07:16:59;61.57;;;34.50;;
40162;SDS011;25881;47.462;19.304;2022-12-08T07:19:24;66.85;;;36.20;;
40162;SDS011;25881;47.462;19.304;2022-12-08T07:21:49;59.35;;;31.73;;
40162;SDS011;25881;47.462;19.304;2022-12-08T07:24:15;58.77;;;31.70;;
40162;SDS011;25881;47.462;19.304;2022-12-08T07:26:40;61.22;;;32.83;;
40162;SDS011;25881;47.462;19.304;2022-12-08T07:29:05;63.95;;;35.30;;
40162;SDS011;25881;47.462;19.304;2022-12-08T07:31:31;54.53;;;31.67;;
40162;SDS011;25881;47.462;19.304;2022-12-08T07:33:56;40.23;;;23.30;;
40162;SDS011;25881;47.462;19.304;2022-12-08T07:36:21;34.37;;;20.07;;
40162;SDS011;25881;47.462;19.304;2022-12-08T07:38:47;33.67;;;18.95;;
40162;SDS011;25881;47.462;19.304;2022-12-08T07:41:13;29.83;;;16.75;;
40162;SDS011;25881;47.462;19.304;2022-12-08T07:43:39;31.85;;;17.90;;
40162;SDS011;25881;47.462;19.304;2022-12-08T07:46:04;31.42;;;17.25;;
40162;SDS011;25881;47.462;19.304;2022-12-08T07:48:30;31.83;;;16.95;;
40162;SDS011;25881;47.462;19.304;2022-12-08T07:50:59;31.50;;;16.13;;
40162;SDS011;25881;47.462;19.304;2022-12-08T07:53:25;31.30;;;16.77;;
40162;SDS011;25881;47.462;19.304;2022-12-08T07:55:50;35.73;;;16.17;;
40162;SDS011;25881;47.462;19.304;2022-12-08T07:58:15;30.97;;;17.67;;
40162;SDS011;25881;47.462;19.304;2022-12-08T08:00:40;28.40;;;16.43;;
40162;SDS011;25881;47.462;19.304;2022-12-08T08:03:06;31.97;;;17.37;;
40162;SDS011;25881;47.462;19.304;2022-12-08T08:05:32;37.97;;;20.52;;
40162;SDS011;25881;47.462;19.304;2022-12-08T08:07:59;39.78;;;21.00;;
40162;SDS011;25881;47.462;19.304;2022-12-08T08:10:24;51.73;;;23.43;;
40162;SDS011;25881;47.462;19.304;2022-12-08T08:12:49;34.92;;;19.52;;
40162;SDS011;25881;47.462;19.304;2022-12-08T08:15:15;36.07;;;17.40;;
40162;SDS011;25881;47.462;19.304;2022-12-08T08:17:41;37.53;;;19.83;;
40162;SDS011;25881;47.462;19.304;2022-12-08T08:20:06;26.90;;;16.83;;
40162;SDS011;25881;47.462;19.304;2022-12-08T08:22:32;30.65;;;15.23;;
40162;SDS011;25881;47.462;19.304;2022-12-08T08:24:57;26.17;;;16.45;;
40162;SDS011;25881;47.462;19.304;2022-12-08T08:27:23;30.98;;;18.10;;
40162;SDS011;25881;47.462;19.304;2022-12-08T08:29:49;28.35;;;15.43;;
40162;SDS011;25881;47.462;19.304;2022-12-08T08:32:14;27.42;;;15.77;;
40162;SDS011;25881;47.462;19.304;2022-12-08T08:34:39;25.07;;;16.10;;
40162;SDS011;25881;47.462;19.304;2022-12-08T08:37:04;29.80;;;16.65;;
40162;SDS011;25881;47.462;19.304;2022-12-08T08:39:30;30.70;;;18.20;;
40162;SDS011;25881;47.462;19.304;2022-12-08T08:41:56;32.95;;;18.67;;
40162;SDS011;25881;47.462;19.304;2022-12-08T08:44:21;30.48;;;18.58;;
40162;SDS011;25881;47.462;19.304;2022-12-08T08:46:46;29.45;;;17.10;;
40162;SDS011;25881;47.462;19.304;2022-12-08T08:49:11;35.30;;;19.90;;
40162;SDS011;25881;47.462;19.304;2022-12-08T08:51:37;36.80;;;18.17;;
40162;SDS011;25881;47.462;19.304;2022-12-08T08:54:02;32.25;;;17.80;;
40162;SDS011;25881;47.462;19.304;2022-12-08T08:56:27;31.73;;;18.75;;
40162;SDS011;25881;47.462;19.304;2022-12-08T08:58:53;33.70;;;19.53;;
40162;SDS011;25881;47.462;19.304;2022-12-08T09:01:19;29.52;;;18.60;;
40162;SDS011;25881;47.462;19.304;2022-12-08T09:03:45;38.70;;;21.15;;
40162;SDS011;25881;47.462;19.304;2022-12-08T09:06:11;35.30;;;19.00;;
40162;SDS011;25881;47.462;19.304;2022-12-08T09:08:36;35.20;;;19.77;;
40162;SDS011;25881;47.462;19.304;2022-12-08T09:11:01;32.83;;;19.13;;
40162;SDS011;25881;47.462;19.304;2022-12-08T09:13:27;29.63;;;17.80;;
40162;SDS011;25881;47.462;19.304;2022-12-08T09:15:52;32.00;;;17.70;;
40162;SDS011;25881;47.462;19.304;2022-12-08T09:18:17;28.20;;;16.13;;
40162;SDS011;25881;47.462;19.304;2022-12-08T09:20:42;30.10;;;19.07;;
40162;SDS011;25881;47.462;19.304;2022-12-08T09:23:07;28.83;;;17.40;;
40162;SDS011;25881;47.462;19.304;2022-12-08T09:25:33;31.10;;;18.57;;
40162;SDS011;25881;47.462;19.304;2022-12-08T09:27:58;31.17;;;18.77;;
40162;SDS011;25881;47.462;19.304;2022-12-08T09:30:23;34.38;;;18.65;;
40162;SDS011;25881;47.462;19.304;2022-12-08T09:32:48;32.17;;;19.07;;
40162;SDS011;25881;47.462;19.304;2022-12-08T09:35:14;33.87;;;19.03;;
40162;SDS011;25881;47.462;19.304;2022-12-08T09:37:39;33.90;;;19.60;;
40162;SDS011;25881;47.462;19.304;2022-12-08T09:40:04;31.30;;;19.13;;
40162;SDS011;25881;47.462;19.304;2022-12-08T09:45:08;41.85;;;22.33;;
40162;SDS011;25881;47.462;19.304;2022-12-08T09:47:36;37.55;;;20.38;;
40162;SDS011;25881;47.462;19.304;2022-12-08T09:50:05;41.30;;;22.17;;
40162;SDS011;25881;47.462;19.304;2022-12-08T09:54:58;44.05;;;24.23;;
40162;SDS011;25881;47.462;19.304;2022-12-08T09:57:24;38.83;;;22.05;;
40162;SDS011;25881;47.462;19.304;2022-12-08T09:59:51;40.53;;;23.80;;
40162;SDS011;25881;47.462;19.304;2022-12-08T10:02:20;37.28;;;22.25;;
40162;SDS011;25881;47.462;19.304;2022-12-08T10:07:35;36.13;;;21.92;;
40162;SDS011;25881;47.462;19.304;2022-12-08T10:17:25;39.33;;;23.40;;
40162;SDS011;25881;47.462;19.304;2022-12-08T10:19:54;39.90;;;23.65;;
40162;SDS011;25881;47.462;19.304;2022-12-08T10:22:22;46.22;;;25.08;;
40162;SDS011;25881;47.462;19.304;2022-12-08T10:24:59;44.33;;;26.40;;
40162;SDS011;25881;47.462;19.304;2022-12-08T10:27:25;45.90;;;25.88;;
40162;SDS011;25881;47.462;19.304;2022-12-08T10:29:50;40.70;;;24.98;;
40162;SDS011;25881;47.462;19.304;2022-12-08T10:32:17;41.97;;;24.80;;
40162;SDS011;25881;47.462;19.304;2022-12-08T10:37:26;43.33;;;24.40;;
40162;SDS011;25881;47.462;19.304;2022-12-08T10:42:36;67.60;;;30.73;;
40162;SDS011;25881;47.462;19.304;2022-12-08T10:47:39;47.72;;;27.35;;
40162;SDS011;25881;47.462;19.304;2022-12-08T10:50:15;42.42;;;24.80;;
40162;SDS011;25881;47.462;19.304;2022-12-08T10:52:44;44.10;;;23.63;;
40162;SDS011;25881;47.462;19.304;2022-12-08T10:55:13;42.10;;;22.48;;
40162;SDS011;25881;47.462;19.304;2022-12-08T10:57:39;38.40;;;21.48;;
40162;SDS011;25881;47.462;19.304;2022-12-08T11:00:04;36.05;;;22.10;;
40162;SDS011;25881;47.462;19.304;2022-12-08T11:02:30;38.58;;;22.15;;
40162;SDS011;25881;47.462;19.304;2022-12-08T11:04:56;37.87;;;20.33;;
40162;SDS011;25881;47.462;19.304;2022-12-08T11:07:23;43.08;;;23.40;;
40162;SDS011;25881;47.462;19.304;2022-12-08T11:09:48;42.75;;;24.05;;
40162;SDS011;25881;47.462;19.304;2022-12-08T11:12:20;35.63;;;21.33;;
40162;SDS011;25881;47.462;19.304;2022-12-08T11:14:46;38.50;;;22.48;;
40162;SDS011;25881;47.462;19.304;2022-12-08T11:27:40;36.40;;;21.98;;
40162;SDS011;25881;47.462;19.304;2022-12-08T11:32:55;40.95;;;23.20;;
40162;SDS011;25881;47.462;19.304;2022-12-08T11:37:48;39.35;;;23.25;;
40162;SDS011;25881;47.462;19.304;2022-12-08T11:40:16;40.47;;;22.97;;
40162;SDS011;25881;47.462;19.304;2022-12-08T11:42:53;37.60;;;22.40;;
40162;SDS011;25881;47.462;19.304;2022-12-08T11:45:26;37.97;;;21.27;;
40162;SDS011;25881;47.462;19.304;2022-12-08T11:47:56;32.47;;;20.35;;
40162;SDS011;25881;47.462;19.304;2022-12-08T11:56:14;37.22;;;21.23;;
40162;SDS011;25881;47.462;19.304;2022-12-08T11:58:42;39.22;;;23.42;;
40162;SDS011;25881;47.462;19.304;2022-12-08T12:01:26;38.55;;;21.65;;
40162;SDS011;25881;47.462;19.304;2022-12-08T12:17:09;32.85;;;18.70;;
40162;SDS011;25881;47.462;19.304;2022-12-08T12:19:45;29.15;;;18.15;;
40162;SDS011;25881;47.462;19.304;2022-12-08T12:22:15;31.20;;;18.17;;
40162;SDS011;25881;47.462;19.304;2022-12-08T12:24:41;36.05;;;20.42;;
40162;SDS011;25881;47.462;19.304;2022-12-08T12:29:47;35.83;;;20.75;;
40162;SDS011;25881;47.462;19.304;2022-12-08T12:32:12;30.80;;;18.05;;
40162;SDS011;25881;47.462;19.304;2022-12-08T12:34:59;27.80;;;17.80;;
40162;SDS011;25881;47.462;19.304;2022-12-08T12:37:36;27.42;;;17.75;;
40162;SDS011;25881;47.462;19.304;2022-12-08T12:40:03;37.30;;;20.83;;
40162;SDS011;25881;47.462;19.304;2022-12-08T12:42:43;36.28;;;20.05;;
40162;SDS011;25881;47.462;19.304;2022-12-08T12:47:50;36.73;;;19.93;;
40162;SDS011;25881;47.462;19.304;2022-12-08T12:52:57;35.95;;;20.05;;
40162;SDS011;25881;47.462;19.304;2022-12-08T12:55:23;35.97;;;21.25;;
40162;SDS011;25881;47.462;19.304;2022-12-08T12:57:53;35.78;;;19.90;;
40162;SDS011;25881;47.462;19.304;2022-12-08T13:00:20;43.28;;;22.48;;
40162;SDS011;25881;47.462;19.304;2022-12-08T13:02:46;34.88;;;21.85;;
40162;SDS011;25881;47.462;19.304;2022-12-08T13:07:48;37.15;;;21.58;;
40162;SDS011;25881;47.462;19.304;2022-12-08T13:12:40;39.40;;;23.48;;
40162;SDS011;25881;47.462;19.304;2022-12-08T13:15:13;40.53;;;22.63;;
40162;SDS011;25881;47.462;19.304;2022-12-08T13:17:42;42.45;;;22.77;;
40162;SDS011;25881;47.462;19.304;2022-12-08T13:20:17;32.93;;;20.20;;
40162;SDS011;25881;47.462;19.304;2022-12-08T13:28:07;29.23;;;18.85;;
40162;SDS011;25881;47.462;19.304;2022-12-08T13:30:40;37.67;;;21.40;;
40162;SDS011;25881;47.462;19.304;2022-12-08T13:33:08;32.55;;;20.23;;
40162;SDS011;25881;47.462;19.304;2022-12-08T13:35:43;36.45;;;21.30;;
40162;SDS011;25881;47.462;19.304;2022-12-08T13:38:10;36.08;;;20.67;;
40162;SDS011;25881;47.462;19.304;2022-12-08T13:40:37;34.00;;;19.95;;
40162;SDS011;25881;47.462;19.304;2022-12-08T13:43:09;34.05;;;20.70;;
40162;SDS011;25881;47.462;19.304;2022-12-08T13:45:39;46.67;;;27.40;;
40162;SDS011;25881;47.462;19.304;2022-12-08T13:48:10;41.03;;;25.27;;
40162;SDS011;25881;47.462;19.304;2022-12-08T13:50:44;42.95;;;24.75;;
40162;SDS011;25881;47.462;19.304;2022-12-08T13:53:17;42.42;;;25.45;;
40162;SDS011;25881;47.462;19.304;2022-12-08T13:58:19;39.20;;;22.20;;
40162;SDS011;25881;47.462;19.304;2022-12-08T14:00:54;45.13;;;26.02;;
40162;SDS011;25881;47.462;19.304;2022-12-08T14:03:21;46.72;;;27.92;;
40162;SDS011;25881;47.462;19.304;2022-12-08T14:05:46;38.92;;;25.20;;
40162;SDS011;25881;47.462;19.304;2022-12-08T14:08:28;39.17;;;24.38;;
40162;SDS011;25881;47.462;19.304;2022-12-08T14:10:57;42.88;;;25.35;;
40162;SDS011;25881;47.462;19.304;2022-12-08T14:13:23;41.00;;;23.90;;
40162;SDS011;25881;47.462;19.304;2022-12-08T14:15:48;47.83;;;28.30;;
40162;SDS011;25881;47.462;19.304;2022-12-08T14:18:24;46.40;;;26.40;;
40162;SDS011;25881;47.462;19.304;2022-12-08T14:21:00;38.83;;;23.90;;
40162;SDS011;25881;47.462;19.304;2022-12-08T14:23:25;42.40;;;25.23;;
40162;SDS011;25881;47.462;19.304;2022-12-08T14:25:50;38.95;;;24.25;;
40162;SDS011;25881;47.462;19.304;2022-12-08T14:28:16;41.63;;;26.15;;
40162;SDS011;25881;47.462;19.304;2022-12-08T14:30:41;44.00;;;25.52;;
40162;SDS011;25881;47.462;19.304;2022-12-08T14:33:08;36.87;;;23.87;;
40162;SDS011;25881;47.462;19.304;2022-12-08T14:35:37;38.78;;;24.02;;
40162;SDS011;25881;47.462;19.304;2022-12-08T14:38:03;44.95;;;26.95;;
40162;SDS011;25881;47.462;19.304;2022-12-08T14:40:42;52.67;;;25.50;;
40162;SDS011;25881;47.462;19.304;2022-12-08T14:45:54;40.42;;;25.33;;
40162;SDS011;25881;47.462;19.304;2022-12-08T14:50:54;39.90;;;24.63;;
40162;SDS011;25881;47.462;19.304;2022-12-08T14:53:21;41.00;;;24.42;;
40162;SDS011;25881;47.462;19.304;2022-12-08T14:55:47;39.22;;;24.25;;
40162;SDS011;25881;47.462;19.304;2022-12-08T14:58:25;46.30;;;27.80;;
40162;SDS011;25881;47.462;19.304;2022-12-08T15:00:52;45.70;;;26.13;;
40162;SDS011;25881;47.462;19.304;2022-12-08T15:03:18;48.22;;;26.48;;
40162;SDS011;25881;47.462;19.304;2022-12-08T15:05:45;41.45;;;25.88;;
40162;SDS011;25881;47.462;19.304;2022-12-08T15:08:14;42.25;;;24.85;;
40162;SDS011;25881;47.462;19.304;2022-12-08T15:10:39;42.15;;;24.95;;
40162;SDS011;25881;47.462;19.304;2022-12-08T15:18:14;41.88;;;24.45;;
40162;SDS011;25881;47.462;19.304;2022-12-08T15:20:42;43.30;;;26.63;;
40162;SDS011;25881;47.462;19.304;2022-12-08T15:25:59;47.20;;;26.35;;
40162;SDS011;25881;47.462;19.304;2022-12-08T15:28:25;41.50;;;25.45;;
40162;SDS011;25881;47.462;19.304;2022-12-08T15:30:51;41.65;;;25.20;;
40162;SDS011;25881;47.462;19.304;2022-12-08T15:33:16;42.60;;;25.75;;
40162;SDS011;25881;47.462;19.304;2022-12-08T15:35:42;43.60;;;24.45;;
40162;SDS011;25881;47.462;19.304;2022-12-08T15:38:26;43.58;;;25.00;;
40162;SDS011;25881;47.462;19.304;2022-12-08T15:40:52;43.08;;;24.00;;
40162;SDS011;25881;47.462;19.304;2022-12-08T15:43:18;39.63;;;22.52;;
40162;SDS011;25881;47.462;19.304;2022-12-08T15:45:43;36.78;;;21.70;;
40162;SDS011;25881;47.462;19.304;2022-12-08T15:48:18;39.33;;;23.80;;
40162;SDS011;25881;47.462;19.304;2022-12-08T15:50:45;37.78;;;23.30;;
40162;SDS011;25881;47.462;19.304;2022-12-08T15:53:10;35.45;;;21.98;;
40162;SDS011;25881;47.462;19.304;2022-12-08T15:55:35;39.72;;;23.38;;
40162;SDS011;25881;47.462;19.304;2022-12-08T15:58:01;43.63;;;25.88;;
40162;SDS011;25881;47.462;19.304;2022-12-08T16:00:27;40.88;;;23.98;;
40162;SDS011;25881;47.462;19.304;2022-12-08T16:02:54;42.87;;;24.43;;
40162;SDS011;25881;47.462;19.304;2022-12-08T16:05:20;41.22;;;24.35;;
40162;SDS011;25881;47.462;19.304;2022-12-08T16:07:46;37.38;;;23.42;;
40162;SDS011;25881;47.462;19.304;2022-12-08T16:10:17;36.38;;;23.13;;
40162;SDS011;25881;47.462;19.304;2022-12-08T16:12:43;42.53;;;25.33;;
40162;SDS011;25881;47.462;19.304;2022-12-08T16:15:28;41.20;;;23.83;;
40162;SDS011;25881;47.462;19.304;2022-12-08T16:17:53;41.17;;;24.02;;